Time,TemperatureF,DewpointF,PressureIn,WindDirection,WindDirectionDegrees,WindSpeedMPH,WindSpeedGustMPH,Humidity,HourlyPrecipIn,Conditions,Clouds,dailyrainin,SoftwareType,DateUTC
2013-01-09 00:01:00,29.6,27.3,30.36,ENE,70,0.0,0.0,91,0.00,,,0.00,Wunderground v.1.15,2013-01-09 05:01:00,
2013-01-09 00:03:00,29.5,27.2,30.36,ENE,70,0.0,0.0,91,0.00,,,0.00,Wunderground v.1.15,2013-01-09 05:03:00,
2013-01-09 00:04:00,29.5,27.2,30.36,ENE,70,0.0,0.0,91,0.00,,,0.00,Wunderground v.1.15,2013-01-09 05:04:00,
2013-01-09 00:10:00,29.3,27.0,30.36,ENE,70,0.0,0.0,91,0.00,,,0.00,Wunderground v.1.15,2013-01-09 05:10:00,
2013-01-09 00:14:00,29.3,27.0,30.36,ENE,70,0.0,0.0,91,0.00,,,0.00,Wunderground v.1.15,2013-01-09 05:14:00,
2013-01-09 00:19:00,29.2,26.9,30.35,ENE,70,0.0,0.0,91,0.00,,,0.00,Wunderground v.1.15,2013-01-09 05:19:00,
2013-01-09 00:25:00,29.0,26.7,30.35,ENE,70,0.0,0.0,91,0.00,,,0.00,Wunderground v.1.15,2013-01-09 05:25:00,
2013-01-09 00:31:00,28.9,26.6,30.35,ENE,70,0.0,0.0,91,0.00,,,0.00,Wunderground v.1.15,2013-01-09 05:31:00,
2013-01-09 00:36:00,28.8,26.5,30.35,ENE,70,0.0,0.0,91,0.00,,,0.00,Wunderground v.1.15,2013-01-09 05:36:00,
2013-01-09 00:42:00,29.0,27.0,30.35,ENE,70,0.0,0.0,92,0.00,,,0.00,Wunderground v.1.15,2013-01-09 05:42:00,
2013-01-09 00:48:00,29.1,27.3,30.34,ENE,70,0.0,0.0,93,0.00,,,0.00,Wunderground v.1.15,2013-01-09 05:48:00,
2013-01-09 00:53:00,29.2,27.2,30.34,ENE,70,0.0,0.0,92,0.00,,,0.00,Wunderground v.1.15,2013-01-09 05:53:00,
2013-01-09 00:58:00,29.2,27.2,30.34,ENE,70,0.0,0.0,92,0.00,,,0.00,Wunderground v.1.15,2013-01-09 05:58:00,
2013-01-09 01:03:00,29.2,27.2,30.34,ENE,70,0.0,0.0,92,0.00,,,0.00,Wunderground v.1.15,2013-01-09 06:03:00,
2013-01-09 01:09:00,29.0,27.0,30.34,ENE,70,0.0,0.0,92,0.00,,,0.00,Wunderground v.1.15,2013-01-09 06:09:00,
2013-01-09 01:14:00,28.8,26.8,30.34,ENE,70,0.0,0.0,92,0.00,,,0.00,Wunderground v.1.15,2013-01-09 06:14:00,
2013-01-09 01:20:00,28.7,26.7,30.34,ENE,70,0.0,0.0,92,0.00,,,0.00,Wunderground v.1.15,2013-01-09 06:20:00,
2013-01-09 01:25:00,28.6,26.6,30.33,ENE,70,0.0,0.0,92,0.00,,,0.00,Wunderground v.1.15,2013-01-09 06:25:00,
2013-01-09 01:32:00,28.3,26.3,30.33,ENE,70,0.0,0.0,92,0.00,,,0.00,Wunderground v.1.15,2013-01-09 06:32:00,
2013-01-09 01:38:00,28.1,25.8,30.34,ENE,70,0.0,0.0,91,0.00,,,0.00,Wunderground v.1.15,2013-01-09 06:38:00,
2013-01-09 01:43:00,28.0,26.0,30.34,ENE,70,0.0,0.0,92,0.00,,,0.00,Wunderground v.1.15,2013-01-09 06:43:00,
2013-01-09 01:48:00,27.9,25.9,30.34,ENE,70,0.0,0.0,92,0.00,,,0.00,Wunderground v.1.15,2013-01-09 06:48:00,
2013-01-09 01:54:00,27.8,25.8,30.34,ENE,70,0.0,0.0,92,0.00,,,0.00,Wunderground v.1.15,2013-01-09 06:54:00,
2013-01-09 01:59:00,27.8,25.8,30.34,ENE,70,0.0,0.0,92,0.00,,,0.00,Wunderground v.1.15,2013-01-09 06:59:00,
2013-01-09 02:04:00,27.7,25.7,30.35,ENE,70,0.0,0.0,92,0.00,,,0.00,Wunderground v.1.15,2013-01-09 07:04:00,
2013-01-09 02:09:00,27.6,25.6,30.34,ENE,70,0.0,0.0,92,0.00,,,0.00,Wunderground v.1.15,2013-01-09 07:09:00,
2013-01-09 02:14:00,27.5,25.5,30.34,ENE,70,0.0,0.0,92,0.00,,,0.00,Wunderground v.1.15,2013-01-09 07:14:00,
2013-01-09 02:19:00,27.5,25.5,30.34,ENE,70,0.0,0.0,92,0.00,,,0.00,Wunderground v.1.15,2013-01-09 07:19:00,
2013-01-09 02:24:00,27.9,26.1,30.35,ENE,70,0.0,0.0,93,0.00,,,0.00,Wunderground v.1.15,2013-01-09 07:24:00,
2013-01-09 02:29:00,28.0,26.2,30.35,ENE,70,0.0,0.0,93,0.00,,,0.00,Wunderground v.1.15,2013-01-09 07:29:00,
2013-01-09 02:35:00,28.1,26.3,30.34,ENE,70,0.0,0.0,93,0.00,,,0.00,Wunderground v.1.15,2013-01-09 07:35:00,
2013-01-09 02:40:00,28.2,26.4,30.35,ENE,70,0.0,0.0,93,0.00,,,0.00,Wunderground v.1.15,2013-01-09 07:40:00,
2013-01-09 02:45:00,28.2,26.4,30.34,ENE,70,0.0,0.0,93,0.00,,,0.00,Wunderground v.1.15,2013-01-09 07:45:00,
2013-01-09 02:50:00,28.2,26.4,30.34,ENE,70,0.0,0.0,93,0.00,,,0.00,Wunderground v.1.15,2013-01-09 07:50:00,
2013-01-09 02:55:00,28.2,26.4,30.34,ENE,70,0.0,0.0,93,0.00,,,0.00,Wunderground v.1.15,2013-01-09 07:55:00,
2013-01-09 02:59:00,28.2,26.4,30.35,ENE,70,0.0,0.0,93,0.00,,,0.00,Wunderground v.1.15,2013-01-09 07:59:00,
2013-01-09 03:04:00,28.3,26.5,30.35,ENE,70,0.0,0.0,93,0.00,,,0.00,Wunderground v.1.15,2013-01-09 08:04:00,
2013-01-09 03:09:00,28.5,26.7,30.34,ENE,70,0.0,0.0,93,0.00,,,0.00,Wunderground v.1.15,2013-01-09 08:09:00,
2013-01-09 03:15:00,28.5,26.7,30.34,ENE,70,0.0,0.0,93,0.00,,,0.00,Wunderground v.1.15,2013-01-09 08:15:00,
2013-01-09 03:20:00,28.6,26.8,30.34,ENE,70,0.0,0.0,93,0.00,,,0.00,Wunderground v.1.15,2013-01-09 08:20:00,
2013-01-09 03:25:00,28.7,26.9,30.34,ENE,70,0.0,0.0,93,0.00,,,0.00,Wunderground v.1.15,2013-01-09 08:25:00,
2013-01-09 03:30:00,28.6,26.8,30.34,ENE,70,0.0,0.0,93,0.00,,,0.00,Wunderground v.1.15,2013-01-09 08:30:00,
2013-01-09 03:35:00,28.5,26.7,30.33,ENE,70,0.0,0.0,93,0.00,,,0.00,Wunderground v.1.15,2013-01-09 08:35:00,
2013-01-09 03:40:00,28.3,26.3,30.33,ENE,70,0.0,0.0,92,0.00,,,0.00,Wunderground v.1.15,2013-01-09 08:40:00,
2013-01-09 03:45:00,28.2,26.2,30.33,ENE,70,0.0,0.0,92,0.00,,,0.00,Wunderground v.1.15,2013-01-09 08:45:00,
2013-01-09 03:50:00,28.1,26.1,30.33,ENE,70,0.0,0.0,92,0.00,,,0.00,Wunderground v.1.15,2013-01-09 08:50:00,
2013-01-09 03:55:00,28.0,26.0,30.33,ENE,70,0.0,0.0,92,0.00,,,0.00,Wunderground v.1.15,2013-01-09 08:55:00,
2013-01-09 04:00:00,27.9,25.9,30.33,ENE,70,0.0,0.0,92,0.00,,,0.00,Wunderground v.1.15,2013-01-09 09:00:00,
2013-01-09 04:05:00,27.8,25.8,30.32,ENE,70,0.0,0.0,92,0.00,,,0.00,Wunderground v.1.15,2013-01-09 09:05:00,
2013-01-09 04:10:00,27.7,25.9,30.32,ENE,70,0.0,0.0,93,0.00,,,0.00,Wunderground v.1.15,2013-01-09 09:10:00,
2013-01-09 04:15:00,27.7,25.9,30.33,ENE,70,0.0,0.0,93,0.00,,,0.00,Wunderground v.1.15,2013-01-09 09:15:00,
2013-01-09 04:20:00,27.6,25.8,30.33,ENE,70,0.0,0.0,93,0.00,,,0.00,Wunderground v.1.15,2013-01-09 09:20:00,
2013-01-09 04:25:00,27.6,25.8,30.32,ENE,70,0.0,0.0,93,0.00,,,0.00,Wunderground v.1.15,2013-01-09 09:25:00,
2013-01-09 04:30:00,27.5,25.7,30.32,ENE,70,0.0,0.0,93,0.00,,,0.00,Wunderground v.1.15,2013-01-09 09:30:00,
2013-01-09 04:35:00,27.5,25.7,30.32,ENE,70,0.0,0.0,93,0.00,,,0.00,Wunderground v.1.15,2013-01-09 09:35:00,
2013-01-09 04:40:00,27.7,25.9,30.32,ENE,70,0.0,0.0,93,0.00,,,0.00,Wunderground v.1.15,2013-01-09 09:40:00,
2013-01-09 04:45:00,27.7,25.9,30.32,ENE,70,0.0,0.0,93,0.00,,,0.00,Wunderground v.1.15,2013-01-09 09:45:00,
2013-01-09 04:50:00,27.7,25.9,30.32,ENE,70,0.0,0.0,93,0.00,,,0.00,Wunderground v.1.15,2013-01-09 09:50:00,
2013-01-09 04:55:00,27.6,25.8,30.32,ENE,70,0.0,0.0,93,0.00,,,0.00,Wunderground v.1.15,2013-01-09 09:55:00,
2013-01-09 05:01:00,27.7,25.9,30.32,ENE,70,0.0,0.0,93,0.00,,,0.00,Wunderground v.1.15,2013-01-09 10:01:00,
2013-01-09 05:06:00,27.7,25.9,30.32,ENE,70,0.0,0.0,93,0.00,,,0.00,Wunderground v.1.15,2013-01-09 10:06:00,
2013-01-09 05:11:00,27.8,26.0,30.31,ENE,70,0.0,0.0,93,0.00,,,0.00,Wunderground v.1.15,2013-01-09 10:11:00,
2013-01-09 05:16:00,27.9,26.1,30.31,ENE,70,0.0,0.0,93,0.00,,,0.00,Wunderground v.1.15,2013-01-09 10:16:00,
2013-01-09 05:21:00,27.8,26.0,30.31,ENE,70,0.0,0.0,93,0.00,,,0.00,Wunderground v.1.15,2013-01-09 10:21:00,
2013-01-09 05:26:00,27.9,26.1,30.30,ENE,70,0.0,0.0,93,0.00,,,0.00,Wunderground v.1.15,2013-01-09 10:26:00,
2013-01-09 05:31:00,28.1,26.3,30.31,ENE,70,0.0,0.0,93,0.00,,,0.00,Wunderground v.1.15,2013-01-09 10:31:00,
2013-01-09 05:36:00,28.2,26.4,30.31,ENE,70,0.0,0.0,93,0.00,,,0.00,Wunderground v.1.15,2013-01-09 10:36:00,
2013-01-09 05:41:00,28.2,26.4,30.31,ENE,70,0.0,0.0,93,0.00,,,0.00,Wunderground v.1.15,2013-01-09 10:41:00,
2013-01-09 05:46:00,28.1,26.3,30.31,ENE,70,0.0,0.0,93,0.00,,,0.00,Wunderground v.1.15,2013-01-09 10:46:00,
2013-01-09 05:51:00,28.2,26.4,30.31,ENE,70,0.0,0.0,93,0.00,,,0.00,Wunderground v.1.15,2013-01-09 10:51:00,
2013-01-09 05:56:00,28.3,26.5,30.31,ENE,70,0.0,0.0,93,0.00,,,0.00,Wunderground v.1.15,2013-01-09 10:56:00,
2013-01-09 06:01:00,28.3,26.5,30.32,ENE,70,0.0,0.0,93,0.00,,,0.00,Wunderground v.1.15,2013-01-09 11:01:00,
2013-01-09 06:06:00,28.1,26.3,30.32,ENE,70,0.0,0.0,93,0.00,,,0.00,Wunderground v.1.15,2013-01-09 11:06:00,
2013-01-09 06:11:00,27.9,26.1,30.32,ENE,70,0.0,0.0,93,0.00,,,0.00,Wunderground v.1.15,2013-01-09 11:11:00,
2013-01-09 06:16:00,27.8,26.0,30.32,ENE,70,0.0,0.0,93,0.00,,,0.00,Wunderground v.1.15,2013-01-09 11:16:00,
2013-01-09 06:21:00,27.8,26.0,30.32,ENE,70,0.0,0.0,93,0.00,,,0.00,Wunderground v.1.15,2013-01-09 11:21:00,
2013-01-09 06:27:00,27.6,25.8,30.32,ENE,70,0.0,0.0,93,0.00,,,0.00,Wunderground v.1.15,2013-01-09 11:27:00,
2013-01-09 06:32:00,27.5,25.7,30.32,ENE,70,0.0,0.0,93,0.00,,,0.00,Wunderground v.1.15,2013-01-09 11:32:00,
2013-01-09 06:37:00,27.5,25.7,30.32,ENE,70,0.0,0.0,93,0.00,,,0.00,Wunderground v.1.15,2013-01-09 11:37:00,
2013-01-09 06:42:00,27.4,25.6,30.32,ENE,70,0.0,0.0,93,0.00,,,0.00,Wunderground v.1.15,2013-01-09 11:42:00,
2013-01-09 06:47:00,27.3,25.5,30.32,ENE,70,0.0,0.0,93,0.00,,,0.00,Wunderground v.1.15,2013-01-09 11:47:00,
2013-01-09 06:52:00,27.3,25.5,30.32,ENE,70,0.0,0.0,93,0.00,,,0.00,Wunderground v.1.15,2013-01-09 11:52:00,
2013-01-09 06:57:00,27.3,25.5,30.32,ENE,70,0.0,0.0,93,0.00,,,0.00,Wunderground v.1.15,2013-01-09 11:57:00,
2013-01-09 07:02:00,27.2,25.4,30.33,ENE,70,0.0,0.0,93,0.00,,,0.00,Wunderground v.1.15,2013-01-09 12:02:00,
2013-01-09 07:07:00,27.2,25.4,30.33,ENE,70,0.0,0.0,93,0.00,,,0.00,Wunderground v.1.15,2013-01-09 12:07:00,
2013-01-09 07:12:00,27.1,25.3,30.33,ENE,70,0.0,0.0,93,0.00,,,0.00,Wunderground v.1.15,2013-01-09 12:12:00,
2013-01-09 07:17:00,27.0,25.2,30.33,ENE,70,0.0,0.0,93,0.00,,,0.00,Wunderground v.1.15,2013-01-09 12:17:00,
2013-01-09 07:22:00,26.9,25.1,30.33,ENE,70,0.0,0.0,93,0.00,,,0.00,Wunderground v.1.15,2013-01-09 12:22:00,
2013-01-09 07:27:00,26.9,25.1,30.32,ENE,70,0.0,0.0,93,0.00,,,0.00,Wunderground v.1.15,2013-01-09 12:27:00,
2013-01-09 07:32:00,27.0,25.2,30.32,ENE,70,0.0,0.0,93,0.00,,,0.00,Wunderground v.1.15,2013-01-09 12:32:00,
2013-01-09 07:37:00,27.1,25.3,30.32,ENE,70,0.0,0.0,93,0.00,,,0.00,Wunderground v.1.15,2013-01-09 12:37:00,
2013-01-09 07:42:00,27.1,25.6,30.32,ENE,70,0.0,0.0,94,0.00,,,0.00,Wunderground v.1.15,2013-01-09 12:42:00,
2013-01-09 07:47:00,27.2,25.7,30.32,ENE,70,0.0,0.0,94,0.00,,,0.00,Wunderground v.1.15,2013-01-09 12:47:00,
2013-01-09 07:52:00,27.3,25.8,30.32,ENE,70,0.0,0.0,94,0.00,,,0.00,Wunderground v.1.15,2013-01-09 12:52:00,
2013-01-09 07:57:00,27.4,25.9,30.32,ENE,70,0.0,0.0,94,0.00,,,0.00,Wunderground v.1.15,2013-01-09 12:57:00,
2013-01-09 08:02:00,27.5,26.0,30.33,ENE,70,0.0,0.0,94,0.00,,,0.00,Wunderground v.1.15,2013-01-09 13:02:00,
2013-01-09 21:10:00,58.7,47.8,30.30,WSW,254,1.0,1.0,67,0.00,,,0.00,Wunderground v.1.15,2013-01-10 02:10:00,
2013-01-09 21:16:00,58.6,47.7,30.30,ENE,63,1.0,2.0,67,0.00,,,0.00,Wunderground v.1.15,2013-01-10 02:16:00,
2013-01-09 21:22:00,58.2,47.3,30.30,SSW,206,1.0,7.0,67,0.00,,,0.00,Wunderground v.1.15,2013-01-10 02:22:00,
2013-01-09 21:28:00,58.0,47.5,30.31,ESE,107,1.0,7.0,68,0.00,,,0.00,Wunderground v.1.15,2013-01-10 02:28:00,
2013-01-09 21:34:00,57.8,47.3,30.31,NE,50,0.0,2.0,68,0.00,,,0.00,Wunderground v.1.15,2013-01-10 02:34:00,
2013-01-09 21:40:00,57.5,47.0,30.31,SSW,207,1.0,1.0,68,0.00,,,0.00,Wunderground v.1.15,2013-01-10 02:40:00,
2013-01-09 21:46:00,57.4,46.5,30.31,NE,45,1.0,1.0,67,0.00,,,0.00,Wunderground v.1.15,2013-01-10 02:46:00,
2013-01-09 21:52:00,57.2,46.7,30.31,NE,45,0.0,0.0,68,0.00,,,0.00,Wunderground v.1.15,2013-01-10 02:52:00,
2013-01-09 21:58:00,56.8,46.3,30.31,East,86,0.0,1.0,68,0.00,,,0.00,Wunderground v.1.15,2013-01-10 02:58:00,
2013-01-09 22:04:00,56.5,46.1,30.32,East,86,0.0,12.0,68,0.00,,,0.00,Wunderground v.1.15,2013-01-10 03:04:00,
2013-01-09 22:10:00,56.2,45.8,30.32,SSW,197,0.0,12.0,68,0.00,,,0.00,Wunderground v.1.15,2013-01-10 03:10:00,
2013-01-09 22:16:00,56.2,45.8,30.32,East,90,0.0,12.0,68,0.00,,,0.00,Wunderground v.1.15,2013-01-10 03:16:00,
2013-01-09 22:22:00,55.8,45.8,30.32,East,90,1.0,12.0,69,0.00,,,0.00,Wunderground v.1.15,2013-01-10 03:22:00,
2013-01-09 22:28:00,55.6,44.4,30.33,SSW,198,1.0,12.0,66,0.00,,,0.00,Wunderground v.1.15,2013-01-10 03:28:00,
2013-01-09 22:34:00,56.1,42.8,30.33,SE,129,1.0,12.0,61,0.00,,,0.00,Wunderground v.1.15,2013-01-10 03:34:00,
2013-01-09 22:40:00,56.6,42.4,30.33,West,268,1.0,1.0,59,0.00,,,0.00,Wunderground v.1.15,2013-01-10 03:40:00,
2013-01-09 22:46:00,56.8,41.3,30.33,WNW,300,1.0,12.0,56,0.00,,,0.00,Wunderground v.1.15,2013-01-10 03:46:00,
2013-01-09 22:52:00,57.0,41.0,30.33,NW,307,1.0,5.0,55,0.00,,,0.00,Wunderground v.1.15,2013-01-10 03:52:00,
2013-01-09 22:58:00,57.0,40.5,30.33,WNW,301,1.0,12.0,54,0.00,,,0.00,Wunderground v.1.15,2013-01-10 03:58:00,
2013-01-09 23:04:00,57.1,38.6,30.33,WSW,240,2.0,12.0,50,0.00,,,0.00,Wunderground v.1.15,2013-01-10 04:04:00,
2013-01-09 23:10:00,57.2,37.7,30.34,NW,321,2.0,2.0,48,0.00,,,0.00,Wunderground v.1.15,2013-01-10 04:10:00,
2013-01-09 23:16:00,57.3,36.7,30.34,SW,227,2.0,12.0,46,0.00,,,0.00,Wunderground v.1.15,2013-01-10 04:16:00,
2013-01-09 23:22:00,57.3,36.1,30.34,West,274,3.0,12.0,45,0.00,,,0.00,Wunderground v.1.15,2013-01-10 04:22:00,
2013-01-09 23:28:00,57.4,34.5,30.34,West,281,3.0,12.0,42,0.00,,,0.00,Wunderground v.1.15,2013-01-10 04:28:00,
2013-01-09 23:34:00,57.5,34.0,30.35,WSW,257,4.0,12.0,41,0.00,,,0.00,Wunderground v.1.15,2013-01-10 04:34:00,
2013-01-09 23:40:00,57.3,32.5,30.35,WSW,254,3.0,12.0,39,0.00,,,0.00,Wunderground v.1.15,2013-01-10 04:40:00,
2013-01-09 23:46:00,57.1,32.4,30.35,WNW,298,3.0,12.0,39,0.00,,,0.00,Wunderground v.1.15,2013-01-10 04:46:00,
2013-01-09 23:52:00,56.8,32.1,30.36,NW,306,2.0,12.0,39,0.00,,,0.00,Wunderground v.1.15,2013-01-10 04:52:00,
2013-01-09 23:58:00,56.4,33.6,30.37,SW,216,1.0,12.0,42,0.00,,,0.00,Wunderground v.1.15,2013-01-10 04:58:00,